Terminal Aerodrome Forecast
Issued by NWS

Home | Current Version | Previous Version | Text Only | Print | Product List | Glossary On
Versions: 1 2 3 4 5 6 7 8 9 10 11 12 13 14 15 16 17 18 19 20 21 22 23 24 25 26
457
FTUS44 KFWD 271734
TAFFTW
TAF
KFTW 271734Z 2718/2818 19018KT P6SM BKN035 BKN250
     FM272100 18018KT P6SM SCT035 BKN250
     FM280900 23010KT P6SM VCSH SCT015 BKN250
     FM281100 34013KT P6SM VCSH BKN015
     FM281300 34013KT P6SM BKN015=

USA.gov is the U.S. government's official web portal to all federal, state and local government web resources and services.